sensor_id;sensor_type;location;lat;lon;timestamp;P1;durP1;ratioP1;P2;durP2;ratioP2
52043;SDS011;38053;53.100;6.078;2023-08-08T00:00:13;8.13;;;3.33;;
52043;SDS011;38053;53.100;6.078;2023-08-08T00:02:40;12.32;;;3.90;;
52043;SDS011;38053;53.100;6.078;2023-08-08T00:05:06;9.45;;;3.53;;
52043;SDS011;38053;53.100;6.078;2023-08-08T00:07:33;8.82;;;2.78;;
52043;SDS011;38053;53.100;6.078;2023-08-08T00:09:58;7.65;;;3.08;;
52043;SDS011;38053;53.100;6.078;2023-08-08T00:12:24;7.90;;;3.42;;
52043;SDS011;38053;53.100;6.078;2023-08-08T00:14:53;8.38;;;3.60;;
52043;SDS011;38053;53.100;6.078;2023-08-08T00:17:19;9.93;;;3.33;;
52043;SDS011;38053;53.100;6.078;2023-08-08T00:19:46;6.93;;;3.08;;
52043;SDS011;38053;53.100;6.078;2023-08-08T00:22:11;12.88;;;3.72;;
52043;SDS011;38053;53.100;6.078;2023-08-08T00:24:37;10.05;;;2.75;;
52043;SDS011;38053;53.100;6.078;2023-08-08T00:27:05;11.25;;;3.15;;
52043;SDS011;38053;53.100;6.078;2023-08-08T00:29:32;5.68;;;2.83;;
52043;SDS011;38053;53.100;6.078;2023-08-08T00:31:59;8.45;;;3.45;;
52043;SDS011;38053;53.100;6.078;2023-08-08T00:34:25;9.75;;;3.28;;
52043;SDS011;38053;53.100;6.078;2023-08-08T00:36:50;7.40;;;3.38;;
52043;SDS011;38053;53.100;6.078;2023-08-08T00:39:16;8.82;;;3.22;;
52043;SDS011;38053;53.100;6.078;2023-08-08T00:41:42;10.90;;;3.50;;
52043;SDS011;38053;53.100;6.078;2023-08-08T00:44:09;10.75;;;3.38;;
52043;SDS011;38053;53.100;6.078;2023-08-08T00:46:35;9.60;;;2.88;;
52043;SDS011;38053;53.100;6.078;2023-08-08T00:49:01;7.38;;;3.17;;
52043;SDS011;38053;53.100;6.078;2023-08-08T00:51:28;9.05;;;3.58;;
52043;SDS011;38053;53.100;6.078;2023-08-08T00:53:54;9.10;;;3.40;;
52043;SDS011;38053;53.100;6.078;2023-08-08T00:56:22;13.90;;;3.45;;
52043;SDS011;38053;53.100;6.078;2023-08-08T00:58:48;9.93;;;3.83;;
52043;SDS011;38053;53.100;6.078;2023-08-08T01:01:15;14.52;;;3.35;;
52043;SDS011;38053;53.100;6.078;2023-08-08T01:03:43;7.95;;;3.03;;
52043;SDS011;38053;53.100;6.078;2023-08-08T01:06:13;9.52;;;3.35;;
52043;SDS011;38053;53.100;6.078;2023-08-08T01:08:52;12.25;;;3.40;;
52043;SDS011;38053;53.100;6.078;2023-08-08T01:11:27;7.63;;;3.00;;
52043;SDS011;38053;53.100;6.078;2023-08-08T01:13:55;16.63;;;4.78;;
52043;SDS011;38053;53.100;6.078;2023-08-08T01:16:23;11.63;;;3.28;;
52043;SDS011;38053;53.100;6.078;2023-08-08T01:18:50;7.88;;;3.58;;
52043;SDS011;38053;53.100;6.078;2023-08-08T01:21:17;11.88;;;3.35;;
52043;SDS011;38053;53.100;6.078;2023-08-08T01:23:53;9.25;;;3.35;;
52043;SDS011;38053;53.100;6.078;2023-08-08T01:26:25;11.48;;;3.33;;
52043;SDS011;38053;53.100;6.078;2023-08-08T01:28:53;13.65;;;3.95;;
52043;SDS011;38053;53.100;6.078;2023-08-08T01:31:19;7.10;;;4.25;;
52043;SDS011;38053;53.100;6.078;2023-08-08T01:33:46;10.88;;;3.58;;
52043;SDS011;38053;53.100;6.078;2023-08-08T01:36:27;12.50;;;3.78;;
52043;SDS011;38053;53.100;6.078;2023-08-08T01:38:59;9.10;;;3.83;;
52043;SDS011;38053;53.100;6.078;2023-08-08T01:41:33;13.98;;;4.30;;
52043;SDS011;38053;53.100;6.078;2023-08-08T01:44:03;10.48;;;4.03;;
52043;SDS011;38053;53.100;6.078;2023-08-08T01:46:32;17.30;;;3.47;;
52043;SDS011;38053;53.100;6.078;2023-08-08T01:49:01;11.32;;;2.83;;
52043;SDS011;38053;53.100;6.078;2023-08-08T01:51:30;13.15;;;3.70;;
52043;SDS011;38053;53.100;6.078;2023-08-08T01:53:56;8.60;;;3.42;;
52043;SDS011;38053;53.100;6.078;2023-08-08T01:56:22;10.75;;;3.60;;
52043;SDS011;38053;53.100;6.078;2023-08-08T01:58:48;8.32;;;3.40;;
52043;SDS011;38053;53.100;6.078;2023-08-08T02:01:14;10.48;;;3.45;;
52043;SDS011;38053;53.100;6.078;2023-08-08T02:03:40;10.30;;;3.40;;
52043;SDS011;38053;53.100;6.078;2023-08-08T02:06:08;11.70;;;3.85;;
52043;SDS011;38053;53.100;6.078;2023-08-08T02:08:34;11.88;;;4.40;;
52043;SDS011;38053;53.100;6.078;2023-08-08T02:11:00;11.55;;;3.38;;
52043;SDS011;38053;53.100;6.078;2023-08-08T02:13:25;8.05;;;3.30;;
52043;SDS011;38053;53.100;6.078;2023-08-08T02:15:54;13.52;;;3.58;;
52043;SDS011;38053;53.100;6.078;2023-08-08T02:18:23;11.77;;;3.03;;
52043;SDS011;38053;53.100;6.078;2023-08-08T02:20:49;9.88;;;3.13;;
52043;SDS011;38053;53.100;6.078;2023-08-08T02:23:20;9.68;;;3.13;;
52043;SDS011;38053;53.100;6.078;2023-08-08T02:25:46;9.18;;;3.58;;
52043;SDS011;38053;53.100;6.078;2023-08-08T02:28:13;8.32;;;3.08;;
52043;SDS011;38053;53.100;6.078;2023-08-08T02:30:40;18.17;;;5.78;;
52043;SDS011;38053;53.100;6.078;2023-08-08T02:33:10;15.27;;;3.33;;
52043;SDS011;38053;53.100;6.078;2023-08-08T02:35:36;14.70;;;3.67;;
52043;SDS011;38053;53.100;6.078;2023-08-08T02:38:04;17.20;;;3.58;;
52043;SDS011;38053;53.100;6.078;2023-08-08T02:40:29;10.82;;;3.20;;
52043;SDS011;38053;53.100;6.078;2023-08-08T02:42:55;15.32;;;3.80;;
52043;SDS011;38053;53.100;6.078;2023-08-08T02:45:24;11.98;;;3.53;;
52043;SDS011;38053;53.100;6.078;2023-08-08T02:47:57;12.48;;;4.18;;
52043;SDS011;38053;53.100;6.078;2023-08-08T02:50:23;18.98;;;6.05;;
52043;SDS011;38053;53.100;6.078;2023-08-08T02:52:55;11.02;;;4.38;;
52043;SDS011;38053;53.100;6.078;2023-08-08T02:55:22;23.20;;;5.45;;
52043;SDS011;38053;53.100;6.078;2023-08-08T02:57:50;14.45;;;4.15;;
52043;SDS011;38053;53.100;6.078;2023-08-08T03:00:18;16.35;;;4.20;;
52043;SDS011;38053;53.100;6.078;2023-08-08T03:02:44;14.13;;;4.28;;
52043;SDS011;38053;53.100;6.078;2023-08-08T03:05:11;18.25;;;3.75;;
52043;SDS011;38053;53.100;6.078;2023-08-08T03:07:38;9.35;;;4.78;;
52043;SDS011;38053;53.100;6.078;2023-08-08T03:10:04;19.67;;;4.63;;
52043;SDS011;38053;53.100;6.078;2023-08-08T03:12:33;12.32;;;4.40;;
52043;SDS011;38053;53.100;6.078;2023-08-08T03:15:00;13.18;;;4.80;;
52043;SDS011;38053;53.100;6.078;2023-08-08T03:17:27;11.52;;;4.15;;
52043;SDS011;38053;53.100;6.078;2023-08-08T03:19:53;15.05;;;4.18;;
52043;SDS011;38053;53.100;6.078;2023-08-08T03:22:18;17.60;;;4.70;;
52043;SDS011;38053;53.100;6.078;2023-08-08T03:24:44;11.55;;;3.90;;
52043;SDS011;38053;53.100;6.078;2023-08-08T03:27:10;15.95;;;4.75;;
52043;SDS011;38053;53.100;6.078;2023-08-08T03:29:36;15.05;;;3.80;;
52043;SDS011;38053;53.100;6.078;2023-08-08T03:32:02;10.85;;;3.90;;
52043;SDS011;38053;53.100;6.078;2023-08-08T03:34:29;16.02;;;4.43;;
52043;SDS011;38053;53.100;6.078;2023-08-08T03:36:55;14.75;;;4.03;;
52043;SDS011;38053;53.100;6.078;2023-08-08T03:39:25;10.03;;;3.80;;
52043;SDS011;38053;53.100;6.078;2023-08-08T03:41:51;15.88;;;3.63;;
52043;SDS011;38053;53.100;6.078;2023-08-08T03:44:17;8.57;;;2.95;;
52043;SDS011;38053;53.100;6.078;2023-08-08T03:46:43;8.43;;;3.30;;
52043;SDS011;38053;53.100;6.078;2023-08-08T03:49:08;65.38;;;6.32;;
52043;SDS011;38053;53.100;6.078;2023-08-08T03:51:34;14.30;;;3.85;;
52043;SDS011;38053;53.100;6.078;2023-08-08T03:54:00;16.27;;;4.95;;
52043;SDS011;38053;53.100;6.078;2023-08-08T03:56:25;10.43;;;3.58;;
52043;SDS011;38053;53.100;6.078;2023-08-08T03:59:01;17.08;;;4.30;;
52043;SDS011;38053;53.100;6.078;2023-08-08T04:01:27;17.77;;;3.72;;
52043;SDS011;38053;53.100;6.078;2023-08-08T04:03:52;13.82;;;3.40;;
52043;SDS011;38053;53.100;6.078;2023-08-08T04:06:18;13.95;;;3.65;;
52043;SDS011;38053;53.100;6.078;2023-08-08T04:08:44;28.05;;;4.32;;
52043;SDS011;38053;53.100;6.078;2023-08-08T04:11:09;15.85;;;3.85;;
52043;SDS011;38053;53.100;6.078;2023-08-08T04:13:39;15.68;;;4.90;;
52043;SDS011;38053;53.100;6.078;2023-08-08T04:16:05;11.45;;;3.10;;
52043;SDS011;38053;53.100;6.078;2023-08-08T04:18:30;14.55;;;3.03;;
52043;SDS011;38053;53.100;6.078;2023-08-08T04:20:56;14.02;;;4.55;;
52043;SDS011;38053;53.100;6.078;2023-08-08T04:23:22;9.00;;;3.90;;
52043;SDS011;38053;53.100;6.078;2023-08-08T04:25:50;10.95;;;3.10;;
52043;SDS011;38053;53.100;6.078;2023-08-08T04:28:16;13.95;;;3.30;;
52043;SDS011;38053;53.100;6.078;2023-08-08T04:30:42;14.45;;;3.03;;
52043;SDS011;38053;53.100;6.078;2023-08-08T04:33:08;13.98;;;3.30;;
52043;SDS011;38053;53.100;6.078;2023-08-08T04:35:34;9.02;;;3.17;;
52043;SDS011;38053;53.100;6.078;2023-08-08T04:38:00;9.13;;;2.67;;
52043;SDS011;38053;53.100;6.078;2023-08-08T04:40:26;12.40;;;2.95;;
52043;SDS011;38053;53.100;6.078;2023-08-08T04:42:54;15.68;;;4.05;;
52043;SDS011;38053;53.100;6.078;2023-08-08T04:45:20;15.88;;;3.38;;
52043;SDS011;38053;53.100;6.078;2023-08-08T04:47:46;7.80;;;2.08;;
52043;SDS011;38053;53.100;6.078;2023-08-08T04:50:12;14.75;;;3.10;;
52043;SDS011;38053;53.100;6.078;2023-08-08T04:52:38;6.35;;;1.98;;
52043;SDS011;38053;53.100;6.078;2023-08-08T04:55:04;8.85;;;2.50;;
52043;SDS011;38053;53.100;6.078;2023-08-08T04:57:30;11.73;;;2.28;;
52043;SDS011;38053;53.100;6.078;2023-08-08T04:59:56;13.25;;;2.30;;
52043;SDS011;38053;53.100;6.078;2023-08-08T05:02:22;8.07;;;2.38;;
52043;SDS011;38053;53.100;6.078;2023-08-08T05:04:48;7.00;;;1.85;;
52043;SDS011;38053;53.100;6.078;2023-08-08T05:07:15;6.38;;;2.00;;
52043;SDS011;38053;53.100;6.078;2023-08-08T05:09:40;8.30;;;2.20;;
52043;SDS011;38053;53.100;6.078;2023-08-08T05:12:06;13.45;;;2.50;;
52043;SDS011;38053;53.100;6.078;2023-08-08T05:14:32;7.88;;;2.10;;
52043;SDS011;38053;53.100;6.078;2023-08-08T05:16:58;7.78;;;1.98;;
52043;SDS011;38053;53.100;6.078;2023-08-08T05:19:24;5.55;;;1.92;;
52043;SDS011;38053;53.100;6.078;2023-08-08T05:21:50;4.70;;;1.98;;
52043;SDS011;38053;53.100;6.078;2023-08-08T05:24:16;9.05;;;2.00;;
52043;SDS011;38053;53.100;6.078;2023-08-08T05:26:41;10.25;;;2.55;;
52043;SDS011;38053;53.100;6.078;2023-08-08T05:29:07;14.70;;;2.70;;
52043;SDS011;38053;53.100;6.078;2023-08-08T05:31:33;6.40;;;2.22;;
52043;SDS011;38053;53.100;6.078;2023-08-08T05:34:01;8.13;;;2.05;;
52043;SDS011;38053;53.100;6.078;2023-08-08T05:36:28;8.93;;;2.78;;
52043;SDS011;38053;53.100;6.078;2023-08-08T05:38:53;7.32;;;1.92;;
52043;SDS011;38053;53.100;6.078;2023-08-08T05:41:20;9.30;;;2.63;;
52043;SDS011;38053;53.100;6.078;2023-08-08T05:43:46;11.25;;;2.50;;
52043;SDS011;38053;53.100;6.078;2023-08-08T05:46:12;20.45;;;2.70;;
52043;SDS011;38053;53.100;6.078;2023-08-08T05:48:38;18.77;;;3.25;;
52043;SDS011;38053;53.100;6.078;2023-08-08T05:51:03;13.07;;;2.50;;
52043;SDS011;38053;53.100;6.078;2023-08-08T05:53:31;6.68;;;2.55;;
52043;SDS011;38053;53.100;6.078;2023-08-08T05:55:57;10.70;;;2.28;;
52043;SDS011;38053;53.100;6.078;2023-08-08T05:58:23;16.02;;;3.22;;
52043;SDS011;38053;53.100;6.078;2023-08-08T06:00:49;10.88;;;2.67;;
52043;SDS011;38053;53.100;6.078;2023-08-08T06:03:15;15.48;;;2.47;;
52043;SDS011;38053;53.100;6.078;2023-08-08T06:05:41;12.57;;;2.53;;
52043;SDS011;38053;53.100;6.078;2023-08-08T06:08:09;12.90;;;2.28;;
52043;SDS011;38053;53.100;6.078;2023-08-08T06:10:37;11.13;;;2.00;;
52043;SDS011;38053;53.100;6.078;2023-08-08T06:13:03;8.77;;;2.08;;
52043;SDS011;38053;53.100;6.078;2023-08-08T06:15:29;7.90;;;2.40;;
52043;SDS011;38053;53.100;6.078;2023-08-08T06:17:55;11.63;;;1.85;;
52043;SDS011;38053;53.100;6.078;2023-08-08T06:20:21;9.75;;;1.63;;
52043;SDS011;38053;53.100;6.078;2023-08-08T06:22:48;15.68;;;2.30;;
52043;SDS011;38053;53.100;6.078;2023-08-08T06:25:15;12.70;;;2.22;;
52043;SDS011;38053;53.100;6.078;2023-08-08T06:27:44;11.88;;;2.22;;
52043;SDS011;38053;53.100;6.078;2023-08-08T06:30:10;12.95;;;2.47;;
52043;SDS011;38053;53.100;6.078;2023-08-08T06:32:36;14.18;;;2.83;;
52043;SDS011;38053;53.100;6.078;2023-08-08T06:35:02;11.63;;;2.67;;
52043;SDS011;38053;53.100;6.078;2023-08-08T06:37:28;14.52;;;2.17;;
52043;SDS011;38053;53.100;6.078;2023-08-08T06:39:54;18.67;;;2.58;;
52043;SDS011;38053;53.100;6.078;2023-08-08T06:42:20;8.30;;;2.13;;
52043;SDS011;38053;53.100;6.078;2023-08-08T06:44:45;7.95;;;1.80;;
52043;SDS011;38053;53.100;6.078;2023-08-08T06:47:11;9.77;;;1.92;;
52043;SDS011;38053;53.100;6.078;2023-08-08T06:49:38;17.92;;;3.28;;
52043;SDS011;38053;53.100;6.078;2023-08-08T06:52:04;15.88;;;3.45;;
52043;SDS011;38053;53.100;6.078;2023-08-08T06:54:37;9.10;;;1.98;;
52043;SDS011;38053;53.100;6.078;2023-08-08T06:57:02;15.80;;;2.70;;
52043;SDS011;38053;53.100;6.078;2023-08-08T06:59:29;8.73;;;2.10;;
52043;SDS011;38053;53.100;6.078;2023-08-08T07:01:55;9.07;;;2.35;;
52043;SDS011;38053;53.100;6.078;2023-08-08T07:04:21;9.73;;;2.00;;
52043;SDS011;38053;53.100;6.078;2023-08-08T07:06:48;6.45;;;1.30;;
52043;SDS011;38053;53.100;6.078;2023-08-08T07:09:13;5.65;;;2.03;;
52043;SDS011;38053;53.100;6.078;2023-08-08T07:11:40;5.95;;;1.85;;
52043;SDS011;38053;53.100;6.078;2023-08-08T07:14:05;9.80;;;1.55;;
52043;SDS011;38053;53.100;6.078;2023-08-08T07:16:32;8.73;;;1.75;;
52043;SDS011;38053;53.100;6.078;2023-08-08T07:18:59;11.68;;;2.50;;
52043;SDS011;38053;53.100;6.078;2023-08-08T07:21:25;9.52;;;1.67;;
52043;SDS011;38053;53.100;6.078;2023-08-08T07:23:51;7.30;;;1.50;;
52043;SDS011;38053;53.100;6.078;2023-08-08T07:26:17;9.18;;;1.77;;
52043;SDS011;38053;53.100;6.078;2023-08-08T07:28:42;7.63;;;1.80;;
52043;SDS011;38053;53.100;6.078;2023-08-08T07:31:08;8.30;;;2.03;;
52043;SDS011;38053;53.100;6.078;2023-08-08T07:33:34;10.68;;;2.63;;
52043;SDS011;38053;53.100;6.078;2023-08-08T07:35:59;5.53;;;1.58;;
52043;SDS011;38053;53.100;6.078;2023-08-08T07:38:28;10.90;;;1.92;;
52043;SDS011;38053;53.100;6.078;2023-08-08T07:40:57;11.32;;;2.25;;
52043;SDS011;38053;53.100;6.078;2023-08-08T07:43:23;11.05;;;2.60;;
52043;SDS011;38053;53.100;6.078;2023-08-08T07:45:51;9.02;;;1.80;;
52043;SDS011;38053;53.100;6.078;2023-08-08T07:48:17;8.75;;;2.10;;
52043;SDS011;38053;53.100;6.078;2023-08-08T07:50:43;11.82;;;1.85;;
52043;SDS011;38053;53.100;6.078;2023-08-08T07:53:08;11.27;;;1.73;;
52043;SDS011;38053;53.100;6.078;2023-08-08T07:55:38;10.15;;;1.50;;
52043;SDS011;38053;53.100;6.078;2023-08-08T07:58:05;8.05;;;1.83;;
52043;SDS011;38053;53.100;6.078;2023-08-08T08:00:31;7.60;;;1.70;;
52043;SDS011;38053;53.100;6.078;2023-08-08T08:02:57;9.07;;;1.77;;
52043;SDS011;38053;53.100;6.078;2023-08-08T08:05:26;11.50;;;2.38;;
52043;SDS011;38053;53.100;6.078;2023-08-08T08:07:53;5.72;;;1.20;;
52043;SDS011;38053;53.100;6.078;2023-08-08T08:10:19;12.13;;;3.03;;
52043;SDS011;38053;53.100;6.078;2023-08-08T08:12:45;8.23;;;2.08;;
52043;SDS011;38053;53.100;6.078;2023-08-08T08:15:11;7.88;;;2.28;;
52043;SDS011;38053;53.100;6.078;2023-08-08T08:17:38;10.52;;;2.55;;
52043;SDS011;38053;53.100;6.078;2023-08-08T08:20:04;11.18;;;2.35;;
52043;SDS011;38053;53.100;6.078;2023-08-08T08:22:36;10.88;;;2.30;;
52043;SDS011;38053;53.100;6.078;2023-08-08T08:25:03;7.32;;;1.75;;
52043;SDS011;38053;53.100;6.078;2023-08-08T08:27:35;12.68;;;2.22;;
52043;SDS011;38053;53.100;6.078;2023-08-08T08:30:06;10.88;;;2.40;;
52043;SDS011;38053;53.100;6.078;2023-08-08T08:32:34;6.63;;;1.67;;
52043;SDS011;38053;53.100;6.078;2023-08-08T08:35:01;5.03;;;1.25;;
52043;SDS011;38053;53.100;6.078;2023-08-08T08:37:29;7.57;;;1.85;;
52043;SDS011;38053;53.100;6.078;2023-08-08T08:39:58;10.23;;;1.67;;
52043;SDS011;38053;53.100;6.078;2023-08-08T08:42:26;11.50;;;1.88;;
52043;SDS011;38053;53.100;6.078;2023-08-08T08:44:57;6.45;;;1.40;;
52043;SDS011;38053;53.100;6.078;2023-08-08T08:47:24;5.47;;;1.67;;
52043;SDS011;38053;53.100;6.078;2023-08-08T08:49:53;6.20;;;1.30;;
52043;SDS011;38053;53.100;6.078;2023-08-08T08:52:20;7.53;;;1.60;;
52043;SDS011;38053;53.100;6.078;2023-08-08T08:54:47;8.63;;;1.48;;
52043;SDS011;38053;53.100;6.078;2023-08-08T08:57:14;6.05;;;1.90;;
52043;SDS011;38053;53.100;6.078;2023-08-08T08:59:40;6.57;;;1.27;;
52043;SDS011;38053;53.100;6.078;2023-08-08T09:02:06;8.07;;;1.30;;
52043;SDS011;38053;53.100;6.078;2023-08-08T09:04:33;7.32;;;2.10;;
52043;SDS011;38053;53.100;6.078;2023-08-08T09:07:00;4.93;;;1.80;;
52043;SDS011;38053;53.100;6.078;2023-08-08T09:09:26;8.38;;;1.40;;
52043;SDS011;38053;53.100;6.078;2023-08-08T09:11:57;6.00;;;1.90;;
52043;SDS011;38053;53.100;6.078;2023-08-08T09:14:23;9.82;;;1.85;;
52043;SDS011;38053;53.100;6.078;2023-08-08T09:16:51;5.40;;;1.50;;
52043;SDS011;38053;53.100;6.078;2023-08-08T09:19:20;7.90;;;2.10;;
52043;SDS011;38053;53.100;6.078;2023-08-08T09:21:47;14.65;;;2.28;;
52043;SDS011;38053;53.100;6.078;2023-08-08T09:24:13;7.75;;;1.90;;
52043;SDS011;38053;53.100;6.078;2023-08-08T09:26:40;11.05;;;1.40;;
52043;SDS011;38053;53.100;6.078;2023-08-08T09:29:06;6.32;;;1.33;;
52043;SDS011;38053;53.100;6.078;2023-08-08T09:31:34;7.13;;;1.83;;
52043;SDS011;38053;53.100;6.078;2023-08-08T09:34:01;11.45;;;2.25;;
52043;SDS011;38053;53.100;6.078;2023-08-08T09:36:29;8.05;;;1.90;;
52043;SDS011;38053;53.100;6.078;2023-08-08T09:38:55;7.95;;;1.65;;
52043;SDS011;38053;53.100;6.078;2023-08-08T09:41:21;16.77;;;2.63;;
52043;SDS011;38053;53.100;6.078;2023-08-08T09:43:52;11.18;;;2.17;;
52043;SDS011;38053;53.100;6.078;2023-08-08T09:46:19;7.35;;;1.70;;
52043;SDS011;38053;53.100;6.078;2023-08-08T09:48:45;11.00;;;2.15;;
52043;SDS011;38053;53.100;6.078;2023-08-08T09:51:11;10.55;;;2.20;;
52043;SDS011;38053;53.100;6.078;2023-08-08T09:53:38;5.40;;;1.45;;
52043;SDS011;38053;53.100;6.078;2023-08-08T09:56:05;7.68;;;1.73;;
52043;SDS011;38053;53.100;6.078;2023-08-08T09:58:32;8.27;;;1.85;;
52043;SDS011;38053;53.100;6.078;2023-08-08T10:00:58;11.10;;;1.95;;
52043;SDS011;38053;53.100;6.078;2023-08-08T10:03:26;16.23;;;2.28;;
52043;SDS011;38053;53.100;6.078;2023-08-08T10:05:56;5.90;;;1.75;;
52043;SDS011;38053;53.100;6.078;2023-08-08T10:08:22;9.13;;;1.40;;
52043;SDS011;38053;53.100;6.078;2023-08-08T10:10:51;11.05;;;1.77;;
52043;SDS011;38053;53.100;6.078;2023-08-08T10:13:25;9.88;;;1.95;;
52043;SDS011;38053;53.100;6.078;2023-08-08T10:15:53;13.43;;;3.13;;
52043;SDS011;38053;53.100;6.078;2023-08-08T10:18:21;9.07;;;1.83;;
52043;SDS011;38053;53.100;6.078;2023-08-08T10:20:47;12.82;;;2.60;;
52043;SDS011;38053;53.100;6.078;2023-08-08T10:23:15;7.32;;;2.33;;
52043;SDS011;38053;53.100;6.078;2023-08-08T10:25:48;9.60;;;1.45;;
52043;SDS011;38053;53.100;6.078;2023-08-08T10:28:17;6.68;;;2.15;;
52043;SDS011;38053;53.100;6.078;2023-08-08T10:30:47;8.52;;;2.10;;
52043;SDS011;38053;53.100;6.078;2023-08-08T10:35:59;6.53;;;1.58;;
52043;SDS011;38053;53.100;6.078;2023-08-08T10:38:42;6.70;;;1.40;;
52043;SDS011;38053;53.100;6.078;2023-08-08T10:41:19;7.65;;;1.83;;
52043;SDS011;38053;53.100;6.078;2023-08-08T10:43:48;7.32;;;1.50;;
52043;SDS011;38053;53.100;6.078;2023-08-08T10:46:24;7.93;;;1.40;;
52043;SDS011;38053;53.100;6.078;2023-08-08T10:48:58;8.15;;;1.77;;
52043;SDS011;38053;53.100;6.078;2023-08-08T10:51:39;9.43;;;2.90;;
52043;SDS011;38053;53.100;6.078;2023-08-08T10:54:24;13.18;;;2.65;;
52043;SDS011;38053;53.100;6.078;2023-08-08T10:56:58;11.80;;;1.92;;
52043;SDS011;38053;53.100;6.078;2023-08-08T10:59:25;6.70;;;1.65;;
52043;SDS011;38053;53.100;6.078;2023-08-08T11:02:04;6.72;;;2.13;;
52043;SDS011;38053;53.100;6.078;2023-08-08T11:04:30;11.32;;;1.70;;
52043;SDS011;38053;53.100;6.078;2023-08-08T11:07:01;5.50;;;1.75;;
52043;SDS011;38053;53.100;6.078;2023-08-08T11:09:27;5.95;;;1.83;;
52043;SDS011;38053;53.100;6.078;2023-08-08T11:11:55;7.90;;;1.15;;
52043;SDS011;38053;53.100;6.078;2023-08-08T11:14:21;4.32;;;1.30;;
52043;SDS011;38053;53.100;6.078;2023-08-08T11:16:49;5.95;;;1.45;;
52043;SDS011;38053;53.100;6.078;2023-08-08T11:19:16;13.95;;;2.50;;
52043;SDS011;38053;53.100;6.078;2023-08-08T11:21:52;6.60;;;1.52;;
52043;SDS011;38053;53.100;6.078;2023-08-08T11:24:17;6.40;;;2.15;;
52043;SDS011;38053;53.100;6.078;2023-08-08T11:26:45;12.93;;;1.67;;
52043;SDS011;38053;53.100;6.078;2023-08-08T11:29:12;6.78;;;1.80;;
52043;SDS011;38053;53.100;6.078;2023-08-08T11:31:41;8.05;;;1.88;;
52043;SDS011;38053;53.100;6.078;2023-08-08T11:34:07;12.98;;;1.83;;
52043;SDS011;38053;53.100;6.078;2023-08-08T11:36:38;7.53;;;1.60;;
52043;SDS011;38053;53.100;6.078;2023-08-08T11:39:07;7.13;;;1.73;;
52043;SDS011;38053;53.100;6.078;2023-08-08T11:41:37;8.80;;;2.08;;
52043;SDS011;38053;53.100;6.078;2023-08-08T11:44:04;7.72;;;1.85;;
52043;SDS011;38053;53.100;6.078;2023-08-08T11:46:30;7.57;;;1.55;;
52043;SDS011;38053;53.100;6.078;2023-08-08T11:49:05;5.95;;;1.55;;
52043;SDS011;38053;53.100;6.078;2023-08-08T11:51:33;8.70;;;1.52;;
52043;SDS011;38053;53.100;6.078;2023-08-08T11:54:00;6.68;;;1.50;;
52043;SDS011;38053;53.100;6.078;2023-08-08T11:56:28;23.25;;;2.03;;
52043;SDS011;38053;53.100;6.078;2023-08-08T11:58:54;8.38;;;2.00;;
52043;SDS011;38053;53.100;6.078;2023-08-08T12:01:22;14.15;;;2.15;;
52043;SDS011;38053;53.100;6.078;2023-08-08T12:03:49;7.93;;;1.65;;
52043;SDS011;38053;53.100;6.078;2023-08-08T12:06:15;11.30;;;1.92;;
52043;SDS011;38053;53.100;6.078;2023-08-08T12:08:43;8.13;;;1.73;;
52043;SDS011;38053;53.100;6.078;2023-08-08T12:11:15;11.18;;;1.83;;
52043;SDS011;38053;53.100;6.078;2023-08-08T12:13:41;13.20;;;2.47;;
52043;SDS011;38053;53.100;6.078;2023-08-08T12:16:08;4.85;;;1.50;;
52043;SDS011;38053;53.100;6.078;2023-08-08T12:18:35;11.43;;;2.05;;
52043;SDS011;38053;53.100;6.078;2023-08-08T12:21:03;8.10;;;1.42;;
52043;SDS011;38053;53.100;6.078;2023-08-08T12:23:33;6.33;;;2.20;;
52043;SDS011;38053;53.100;6.078;2023-08-08T12:25:59;8.63;;;1.73;;
52043;SDS011;38053;53.100;6.078;2023-08-08T12:28:28;6.18;;;1.65;;
52043;SDS011;38053;53.100;6.078;2023-08-08T12:30:54;11.98;;;1.90;;
52043;SDS011;38053;53.100;6.078;2023-08-08T12:33:21;8.27;;;1.58;;
52043;SDS011;38053;53.100;6.078;2023-08-08T12:35:47;6.63;;;1.08;;
52043;SDS011;38053;53.100;6.078;2023-08-08T12:38:14;4.82;;;1.58;;
52043;SDS011;38053;53.100;6.078;2023-08-08T12:40:40;4.80;;;1.30;;
52043;SDS011;38053;53.100;6.078;2023-08-08T12:43:08;6.22;;;1.60;;
52043;SDS011;38053;53.100;6.078;2023-08-08T12:45:36;7.32;;;1.50;;
52043;SDS011;38053;53.100;6.078;2023-08-08T12:48:01;10.30;;;1.75;;
52043;SDS011;38053;53.100;6.078;2023-08-08T12:50:30;7.63;;;2.30;;
52043;SDS011;38053;53.100;6.078;2023-08-08T12:52:55;8.02;;;1.60;;
52043;SDS011;38053;53.100;6.078;2023-08-08T12:55:21;7.53;;;1.80;;
52043;SDS011;38053;53.100;6.078;2023-08-08T12:57:47;8.60;;;1.75;;
52043;SDS011;38053;53.100;6.078;2023-08-08T13:00:13;8.80;;;1.70;;
52043;SDS011;38053;53.100;6.078;2023-08-08T13:02:39;6.43;;;1.35;;
52043;SDS011;38053;53.100;6.078;2023-08-08T13:05:05;7.68;;;1.98;;
52043;SDS011;38053;53.100;6.078;2023-08-08T13:07:32;7.82;;;2.17;;
52043;SDS011;38053;53.100;6.078;2023-08-08T13:09:58;6.85;;;1.45;;
52043;SDS011;38053;53.100;6.078;2023-08-08T13:12:24;8.23;;;1.77;;
52043;SDS011;38053;53.100;6.078;2023-08-08T13:14:50;10.15;;;1.85;;
52043;SDS011;38053;53.100;6.078;2023-08-08T13:17:16;12.65;;;2.42;;
52043;SDS011;38053;53.100;6.078;2023-08-08T13:19:41;7.82;;;2.03;;
52043;SDS011;38053;53.100;6.078;2023-08-08T13:22:08;11.68;;;2.90;;
52043;SDS011;38053;53.100;6.078;2023-08-08T13:24:34;13.73;;;2.30;;
52043;SDS011;38053;53.100;6.078;2023-08-08T13:27:00;8.73;;;2.17;;
52043;SDS011;38053;53.100;6.078;2023-08-08T13:29:26;13.20;;;2.47;;
52043;SDS011;38053;53.100;6.078;2023-08-08T13:31:51;9.55;;;2.30;;
52043;SDS011;38053;53.100;6.078;2023-08-08T13:34:17;11.20;;;1.83;;
52043;SDS011;38053;53.100;6.078;2023-08-08T13:36:43;6.68;;;1.58;;
52043;SDS011;38053;53.100;6.078;2023-08-08T13:39:08;7.35;;;1.80;;
52043;SDS011;38053;53.100;6.078;2023-08-08T13:41:35;7.25;;;2.10;;
52043;SDS011;38053;53.100;6.078;2023-08-08T13:44:03;5.53;;;1.58;;
52043;SDS011;38053;53.100;6.078;2023-08-08T13:46:29;10.23;;;2.10;;
52043;SDS011;38053;53.100;6.078;2023-08-08T13:48:54;9.02;;;1.73;;
52043;SDS011;38053;53.100;6.078;2023-08-08T13:51:20;7.38;;;2.08;;
52043;SDS011;38053;53.100;6.078;2023-08-08T13:53:46;4.93;;;1.70;;
52043;SDS011;38053;53.100;6.078;2023-08-08T13:56:17;5.35;;;1.15;;
52043;SDS011;38053;53.100;6.078;2023-08-08T13:58:43;6.18;;;1.83;;
52043;SDS011;38053;53.100;6.078;2023-08-08T14:01:10;6.75;;;1.98;;
52043;SDS011;38053;53.100;6.078;2023-08-08T14:03:36;5.88;;;1.90;;
52043;SDS011;38053;53.100;6.078;2023-08-08T14:06:03;11.20;;;2.08;;
52043;SDS011;38053;53.100;6.078;2023-08-08T14:08:29;11.68;;;2.58;;
52043;SDS011;38053;53.100;6.078;2023-08-08T14:10:55;9.45;;;2.47;;
52043;SDS011;38053;53.100;6.078;2023-08-08T14:13:24;9.70;;;1.67;;
52043;SDS011;38053;53.100;6.078;2023-08-08T14:15:49;9.38;;;1.60;;
52043;SDS011;38053;53.100;6.078;2023-08-08T14:18:16;8.60;;;2.15;;
52043;SDS011;38053;53.100;6.078;2023-08-08T14:20:43;8.60;;;1.65;;
52043;SDS011;38053;53.100;6.078;2023-08-08T14:23:09;11.07;;;1.75;;
52043;SDS011;38053;53.100;6.078;2023-08-08T14:25:36;7.50;;;1.88;;
52043;SDS011;38053;53.100;6.078;2023-08-08T14:28:06;13.87;;;2.40;;
52043;SDS011;38053;53.100;6.078;2023-08-08T14:30:32;7.90;;;1.45;;
52043;SDS011;38053;53.100;6.078;2023-08-08T14:32:59;9.52;;;2.55;;
52043;SDS011;38053;53.100;6.078;2023-08-08T14:35:24;5.80;;;1.50;;
52043;SDS011;38053;53.100;6.078;2023-08-08T14:37:53;8.80;;;1.77;;
52043;SDS011;38053;53.100;6.078;2023-08-08T14:40:20;10.50;;;1.55;;
52043;SDS011;38053;53.100;6.078;2023-08-08T14:42:46;11.43;;;1.67;;